createdAt,value
2023-01-26T00:00:42.408Z,1021
2023-01-26T00:01:58.614Z,1021.1
2023-01-26T00:03:14.795Z,1021
2023-01-26T00:04:30.813Z,1021
2023-01-26T00:05:47.173Z,1021
2023-01-26T00:07:02.369Z,1020.9
2023-01-26T00:08:18.555Z,1021
2023-01-26T00:09:34.757Z,1020.9
2023-01-26T00:10:50.946Z,1021
2023-01-26T00:12:06.957Z,1020.9
2023-01-26T00:13:23.312Z,1020.9
2023-01-26T00:14:39.505Z,1020.9
2023-01-26T00:15:55.689Z,1020.8
2023-01-26T00:17:11.884Z,1020.9
2023-01-26T00:18:27.903Z,1020.9
2023-01-26T00:19:44.099Z,1020.9
2023-01-26T00:21:00.453Z,1020.9
2023-01-26T00:22:16.473Z,1020.8
2023-01-26T00:23:31.856Z,1020.8
2023-01-26T00:24:48.040Z,1020.8
2023-01-26T00:26:04.220Z,1020.8
2023-01-26T00:27:20.235Z,1020.7
2023-01-26T00:28:36.611Z,1020.7
2023-01-26T00:29:52.795Z,1020.7
2023-01-26T00:31:08.797Z,1020.6
2023-01-26T00:32:25.170Z,1020.6
2023-01-26T00:33:41.182Z,1020.6
2023-01-26T00:34:57.369Z,1020.5
2023-01-26T00:36:13.558Z,1020.6
2023-01-26T00:37:29.752Z,1020.6
2023-01-26T00:38:46.101Z,1020.6
2023-01-26T00:40:01.308Z,1020.5
2023-01-26T00:41:17.502Z,1020.5
2023-01-26T00:42:33.681Z,1020.5
2023-01-26T00:43:49.716Z,1020.6
2023-01-26T00:45:06.067Z,1020.5
2023-01-26T00:46:22.246Z,1020.5
2023-01-26T00:47:38.451Z,1020.6
2023-01-26T00:48:54.638Z,1020.5
2023-01-26T00:50:10.661Z,1020.6
2023-01-26T00:51:27.003Z,1020.5
2023-01-26T00:52:43.038Z,1020.5
2023-01-26T00:53:59.390Z,1020.5
2023-01-26T00:55:15.584Z,1020.5
2023-01-26T00:56:30.609Z,1020.6
2023-01-26T00:57:46.810Z,1020.5
2023-01-26T00:59:03.154Z,1020.5
2023-01-26T01:00:19.176Z,1020.5
2023-01-26T01:01:35.540Z,1020.6
2023-01-26T01:02:51.722Z,1020.6
2023-01-26T01:04:07.756Z,1020.5
2023-01-26T01:05:24.102Z,1020.5
2023-01-26T01:06:40.287Z,1020.5
2023-01-26T01:07:56.320Z,1020.5
2023-01-26T01:09:12.499Z,1020.5
2023-01-26T01:10:28.851Z,1020.4
2023-01-26T01:11:45.042Z,1020.4
2023-01-26T01:13:00.259Z,1020.4
2023-01-26T01:14:16.452Z,1020.5
2023-01-26T01:15:32.628Z,1020.4
2023-01-26T01:16:48.644Z,1020.4
2023-01-26T01:18:05.006Z,1020.5
2023-01-26T01:19:21.027Z,1020.4
2023-01-26T01:20:37.393Z,1020.4
2023-01-26T01:21:53.583Z,1020.4
2023-01-26T01:23:09.758Z,1020.4
2023-01-26T01:24:25.950Z,1020.4
2023-01-26T01:25:42.143Z,1020.4
2023-01-26T01:26:58.337Z,1020.4
2023-01-26T01:28:14.523Z,1020.3
2023-01-26T01:29:29.557Z,1020.4
2023-01-26T01:30:45.733Z,1020.4
2023-01-26T01:32:02.105Z,1020.3
2023-01-26T01:33:18.292Z,1020.2
2023-01-26T01:34:34.319Z,1020.3
2023-01-26T01:35:50.000Z,1020.3
2023-01-26T01:37:06.873Z,1020.2
2023-01-26T01:38:23.059Z,1020.2
2023-01-26T01:39:39.247Z,1020.2
2023-01-26T01:40:55.431Z,1020.2
2023-01-26T01:42:11.625Z,1020.2
2023-01-26T01:43:27.805Z,1020.2
2023-01-26T01:44:43.811Z,1020.2
2023-01-26T01:45:59.212Z,1020.3
2023-01-26T01:47:15.386Z,1020.1
2023-01-26T01:48:31.412Z,1020.1
2023-01-26T01:49:47.767Z,1020.1
2023-01-26T01:51:03.970Z,1020.1
2023-01-26T01:52:20.145Z,1020.1
2023-01-26T01:53:36.155Z,1020.1
2023-01-26T01:54:52.525Z,1020
2023-01-26T01:56:08.543Z,1020
2023-01-26T01:57:24.899Z,1020
2023-01-26T01:58:41.103Z,1020
2023-01-26T01:59:57.117Z,1020
2023-01-26T02:01:13.300Z,1020
2023-01-26T02:02:28.679Z,1020
2023-01-26T02:03:44.873Z,1020
2023-01-26T02:05:01.056Z,1020
2023-01-26T02:06:17.243Z,1020
2023-01-26T02:07:33.433Z,1020
2023-01-26T02:08:49.627Z,1020
2023-01-26T02:10:05.624Z,1020
2023-01-26T02:11:21.830Z,1020
2023-01-26T02:12:38.195Z,1020
2023-01-26T02:13:54.379Z,1020
2023-01-26T02:15:10.381Z,1019.9
2023-01-26T02:16:26.767Z,1019.9
2023-01-26T02:17:42.948Z,1019.9
2023-01-26T02:18:58.167Z,1019.9
2023-01-26T02:20:14.152Z,1019.8
2023-01-26T02:21:30.535Z,1019.8
2023-01-26T02:22:46.720Z,1019.8
2023-01-26T02:24:02.922Z,1019.8
2023-01-26T02:25:18.115Z,1019.7
2023-01-26T02:26:34.305Z,1019.7
2023-01-26T02:27:50.503Z,1019.7
2023-01-26T02:29:06.688Z,1019.7
2023-01-26T02:30:22.875Z,1019.6
2023-01-26T02:31:39.069Z,1019.7
2023-01-26T02:32:55.259Z,1019.6
2023-01-26T02:34:11.449Z,1019.6
2023-01-26T02:35:27.645Z,1019.6
2023-01-26T02:36:43.635Z,1019.6
2023-01-26T02:37:59.825Z,1019.6
2023-01-26T02:39:16.008Z,1019.5
2023-01-26T02:40:32.389Z,1019.4
2023-01-26T02:41:47.599Z,1019.5
2023-01-26T02:43:03.600Z,1019.5
2023-01-26T02:44:19.977Z,1019.5
2023-01-26T02:45:36.168Z,1019.5
2023-01-26T02:46:52.166Z,1019.5
2023-01-26T02:48:08.547Z,1019.5
2023-01-26T02:49:24.744Z,1019.4
2023-01-26T02:50:40.733Z,1019.3
2023-01-26T02:51:56.927Z,1019.4
2023-01-26T02:53:13.313Z,1019.3
2023-01-26T02:54:29.495Z,1019.4
2023-01-26T02:55:45.684Z,1019.4
2023-01-26T02:57:01.684Z,1019.4
2023-01-26T02:58:17.077Z,1019.4
2023-01-26T02:59:33.062Z,1019.4
2023-01-26T03:00:49.455Z,1019.4
2023-01-26T03:02:05.644Z,1019.4
2023-01-26T03:03:21.646Z,1019.3
2023-01-26T03:04:37.831Z,1019.4
2023-01-26T03:05:54.203Z,1019.4
2023-01-26T03:07:10.205Z,1019.3
2023-01-26T03:08:26.590Z,1019.4
2023-01-26T03:09:42.782Z,1019.4
2023-01-26T03:10:58.961Z,1019.4
2023-01-26T03:12:15.155Z,1019.4
2023-01-26T03:13:31.147Z,1019.5
2023-01-26T03:14:46.553Z,1019.5
2023-01-26T03:16:02.541Z,1019.5
2023-01-26T03:17:18.940Z,1019.4
2023-01-26T03:18:35.113Z,1019.4
2023-01-26T03:19:51.314Z,1019.4
2023-01-26T03:21:07.491Z,1019.4
2023-01-26T03:22:23.698Z,1019.4
2023-01-26T03:23:39.883Z,1019.5
2023-01-26T03:24:56.074Z,1019.4
2023-01-26T03:26:12.049Z,1019.4
2023-01-26T03:27:28.443Z,1019.4
2023-01-26T03:28:44.642Z,1019.4
2023-01-26T03:30:00.833Z,1019.4
2023-01-26T03:31:16.022Z,1019.3
2023-01-26T03:32:32.220Z,1019.3
2023-01-26T03:33:48.409Z,1019.3
2023-01-26T03:35:04.600Z,1019.3
2023-01-26T03:36:20.593Z,1019.3
2023-01-26T03:37:36.969Z,1019.2
2023-01-26T03:38:53.159Z,1019.3
2023-01-26T03:40:09.350Z,1019.2
2023-01-26T03:41:25.347Z,1019.3
2023-01-26T03:42:41.530Z,1019.2
2023-01-26T03:43:57.914Z,1019.3
2023-01-26T03:45:14.113Z,1019.2
2023-01-26T03:46:30.309Z,1019.2
2023-01-26T03:47:45.309Z,1019.2
2023-01-26T03:49:01.496Z,1019.2
2023-01-26T03:50:17.893Z,1019.3
2023-01-26T03:51:34.066Z,1019.3
2023-01-26T03:52:50.267Z,1019.3
2023-01-26T03:54:06.249Z,1019.3
2023-01-26T03:55:22.645Z,1019.3
2023-01-26T03:56:38.840Z,1019.3
2023-01-26T03:57:54.812Z,1019.3
2023-01-26T03:59:11.217Z,1019.3
2023-01-26T04:00:27.390Z,1019.4
2023-01-26T04:01:43.585Z,1019.3
2023-01-26T04:02:59.787Z,1019.3
2023-01-26T04:04:14.993Z,1019.3
2023-01-26T04:05:30.967Z,1019.2
2023-01-26T04:06:47.164Z,1019.2
2023-01-26T04:08:03.543Z,1019.1
2023-01-26T04:09:19.747Z,1019.2
2023-01-26T04:10:35.932Z,1019.2
2023-01-26T04:11:52.117Z,1019.2
2023-01-26T04:13:08.313Z,1019.2
2023-01-26T04:14:24.501Z,1019.2
2023-01-26T04:15:40.688Z,1019.1
2023-01-26T04:16:56.884Z,1019.1
2023-01-26T04:18:13.074Z,1019.2
2023-01-26T04:19:29.253Z,1019.1
2023-01-26T04:20:44.250Z,1019.1
2023-01-26T04:22:00.653Z,1019.1
2023-01-26T04:23:16.841Z,1019.1
2023-01-26T04:24:33.023Z,1019
2023-01-26T04:25:49.208Z,1019.1
2023-01-26T04:27:05.400Z,1019.1
2023-01-26T04:28:21.595Z,1019.1
2023-01-26T04:29:37.789Z,1019
2023-01-26T04:30:53.978Z,1019
2023-01-26T04:32:10.153Z,1019
2023-01-26T04:33:26.355Z,1019
2023-01-26T04:34:42.533Z,1019
2023-01-26T04:35:58.732Z,1019
2023-01-26T04:37:13.927Z,1019
2023-01-26T04:38:30.117Z,1019
2023-01-26T04:39:46.315Z,1019
2023-01-26T04:41:02.500Z,1018.9
2023-01-26T04:42:18.477Z,1018.9
2023-01-26T04:43:34.882Z,1019
2023-01-26T04:44:51.079Z,1019
2023-01-26T04:46:07.265Z,1019
2023-01-26T04:47:23.458Z,1018.9
2023-01-26T04:48:39.639Z,1018.9
2023-01-26T04:49:55.825Z,1019
2023-01-26T04:51:12.025Z,1018.9
2023-01-26T04:52:28.205Z,1018.9
2023-01-26T04:53:43.417Z,1018.9
2023-01-26T04:54:59.608Z,1018.9
2023-01-26T04:56:15.570Z,1018.9
2023-01-26T04:57:31.760Z,1018.9
2023-01-26T04:58:48.164Z,1018.8
2023-01-26T05:00:04.352Z,1018.9
2023-01-26T05:01:20.539Z,1018.8
2023-01-26T05:02:36.725Z,1018.8
2023-01-26T05:03:52.696Z,1018.8
2023-01-26T05:05:09.121Z,1018.8
2023-01-26T05:06:25.295Z,1018.7
2023-01-26T05:07:41.485Z,1018.8
2023-01-26T05:08:57.676Z,1018.7
2023-01-26T05:10:12.889Z,1018.7
2023-01-26T05:11:28.859Z,1018.7
2023-01-26T05:12:45.264Z,1018.7
2023-01-26T05:14:01.450Z,1018.7
2023-01-26T05:15:17.648Z,1018.7
2023-01-26T05:16:33.613Z,1018.8
2023-01-26T05:17:50.025Z,1018.7
2023-01-26T05:19:05.986Z,1018.7
2023-01-26T05:20:22.410Z,1018.7
2023-01-26T05:21:38.593Z,1018.7
2023-01-26T05:22:54.544Z,1018.7
2023-01-26T05:24:10.967Z,1018.7
2023-01-26T05:25:27.147Z,1018.7
2023-01-26T05:26:42.137Z,1018.7
2023-01-26T05:27:58.546Z,1018.8
2023-01-26T05:29:14.748Z,1018.8
2023-01-26T05:30:30.934Z,1018.8
2023-01-26T05:31:46.897Z,1018.8
2023-01-26T05:33:03.299Z,1018.8
2023-01-26T05:34:19.267Z,1018.8
2023-01-26T05:35:35.450Z,1018.8
2023-01-26T05:36:51.877Z,1018.8
2023-01-26T05:38:08.067Z,1018.8
2023-01-26T05:39:24.247Z,1018.8
2023-01-26T05:40:40.453Z,1018.8
2023-01-26T05:41:56.394Z,1018.8
2023-01-26T05:43:11.844Z,1018.8
2023-01-26T05:44:28.028Z,1018.8
2023-01-26T05:45:44.219Z,1018.8
2023-01-26T05:47:00.399Z,1018.8
2023-01-26T05:48:16.590Z,1018.9
2023-01-26T05:49:32.561Z,1018.9
2023-01-26T05:50:48.977Z,1018.8
2023-01-26T05:52:04.922Z,1018.8
2023-01-26T05:53:21.357Z,1018.9
2023-01-26T05:54:37.547Z,1018.9
2023-01-26T05:55:53.734Z,1018.9
2023-01-26T05:57:09.689Z,1018.8
2023-01-26T05:58:26.102Z,1018.8
2023-01-26T05:59:41.305Z,1018.8
2023-01-26T06:00:57.504Z,1018.8
2023-01-26T06:02:13.690Z,1018.8
2023-01-26T06:03:29.888Z,1018.8
2023-01-26T06:04:45.843Z,1018.8
2023-01-26T06:06:02.265Z,1018.8
2023-01-26T06:07:18.450Z,1018.8
2023-01-26T06:08:34.643Z,1018.7
2023-01-26T06:09:50.835Z,1018.8
2023-01-26T06:11:07.016Z,1018.8
2023-01-26T06:12:22.972Z,1018.8
2023-01-26T06:13:39.154Z,1018.9
2023-01-26T06:14:55.580Z,1018.8
2023-01-26T06:16:10.792Z,1018.9
2023-01-26T06:17:26.988Z,1018.8
2023-01-26T06:18:43.172Z,1018.8
2023-01-26T06:19:59.114Z,1018.8
2023-01-26T06:21:15.547Z,1018.8
2023-01-26T06:22:31.734Z,1018.8
2023-01-26T06:23:47.925Z,1018.8
2023-01-26T06:25:04.122Z,1018.9
2023-01-26T06:26:20.059Z,1018.9
2023-01-26T06:27:36.243Z,1018.9
2023-01-26T06:28:52.688Z,1018.9
2023-01-26T06:30:08.861Z,1018.9
2023-01-26T06:31:24.824Z,1018.9
2023-01-26T06:32:40.030Z,1018.9
2023-01-26T06:33:56.447Z,1018.9
2023-01-26T06:35:12.394Z,1018.9
2023-01-26T06:36:28.828Z,1018.9
2023-01-26T06:37:45.026Z,1018.9
2023-01-26T06:39:01.218Z,1018.9
2023-01-26T06:40:16.422Z,1018.9
2023-01-26T06:41:32.608Z,1018.9
2023-01-26T06:42:48.557Z,1018.9
2023-01-26T06:44:04.992Z,1018.9
2023-01-26T06:45:21.169Z,1018.9
2023-01-26T06:46:37.363Z,1018.9
2023-01-26T06:47:53.304Z,1018.9
2023-01-26T06:49:09.510Z,1018.9
2023-01-26T06:50:25.683Z,1018.9
2023-01-26T06:51:41.886Z,1019
2023-01-26T06:52:58.311Z,1019
2023-01-26T06:54:14.267Z,1018.9
2023-01-26T06:55:30.686Z,1019
2023-01-26T06:56:45.889Z,1019
2023-01-26T06:58:01.837Z,1019
2023-01-26T06:59:18.275Z,1019
2023-01-26T07:00:34.475Z,1019
2023-01-26T07:01:50.657Z,1018.9
2023-01-26T07:03:06.842Z,1018.9
2023-01-26T07:04:23.022Z,1018.9
2023-01-26T07:05:38.979Z,1018.9
2023-01-26T07:06:55.400Z,1018.9
2023-01-26T07:08:11.596Z,1018.9
2023-01-26T07:09:27.793Z,1018.9
2023-01-26T07:10:43.982Z,1018.9
2023-01-26T07:12:00.159Z,1018.9
2023-01-26T07:13:15.130Z,1018.9
2023-01-26T07:14:31.562Z,1018.9
2023-01-26T07:15:47.750Z,1018.9
2023-01-26T07:17:03.688Z,1018.9
2023-01-26T07:18:20.122Z,1018.9
2023-01-26T07:19:36.312Z,1018.9
2023-01-26T07:20:52.258Z,1019
2023-01-26T07:22:08.696Z,1019
2023-01-26T07:23:24.876Z,1018.9
2023-01-26T07:24:41.083Z,1018.9
2023-01-26T07:25:57.271Z,1019
2023-01-26T07:27:13.457Z,1019
2023-01-26T07:28:29.384Z,1018.9
2023-01-26T07:29:44.586Z,1018.9
2023-01-26T07:31:01.031Z,1018.9
2023-01-26T07:32:17.223Z,1018.9
2023-01-26T07:33:33.170Z,1018.9
2023-01-26T07:34:49.597Z,1018.9
2023-01-26T07:36:05.540Z,1018.9
2023-01-26T07:37:21.975Z,1018.9
2023-01-26T07:38:37.909Z,1018.9
2023-01-26T07:39:54.362Z,1018.9
2023-01-26T07:41:10.560Z,1018.9
2023-01-26T07:42:26.747Z,1018.9
2023-01-26T07:43:42.922Z,1019
2023-01-26T07:44:59.116Z,1018.9
2023-01-26T07:46:14.325Z,1018.9
2023-01-26T07:47:30.512Z,1018.9
2023-01-26T07:48:46.708Z,1018.9
2023-01-26T07:50:02.896Z,1018.9
2023-01-26T07:51:19.071Z,1018.9
2023-01-26T07:52:35.268Z,1018.9
2023-01-26T07:53:51.466Z,1018.9
2023-01-26T07:55:07.652Z,1019
2023-01-26T07:56:23.846Z,1019
2023-01-26T07:57:40.016Z,1019
2023-01-26T07:58:55.955Z,1018.9
2023-01-26T08:00:12.411Z,1018.9
2023-01-26T08:01:28.593Z,1019
2023-01-26T08:02:43.790Z,1019
2023-01-26T08:03:59.736Z,1018.9
2023-01-26T08:05:16.186Z,1019
2023-01-26T08:06:32.111Z,1019
2023-01-26T08:07:48.300Z,1019
2023-01-26T08:09:04.744Z,1019
2023-01-26T08:10:20.677Z,1019
2023-01-26T08:11:36.871Z,1019
2023-01-26T08:12:53.315Z,1019.1
2023-01-26T08:14:09.508Z,1019.1
2023-01-26T08:15:25.710Z,1019.1
2023-01-26T08:16:41.874Z,1019.1
2023-01-26T08:17:58.070Z,1019
2023-01-26T08:19:13.276Z,1019.1
2023-01-26T08:20:29.473Z,1019.1
2023-01-26T08:21:45.382Z,1019
2023-01-26T08:23:01.845Z,1019.1
2023-01-26T08:24:18.021Z,1019
2023-01-26T08:25:34.218Z,1019
2023-01-26T08:26:50.413Z,1019
2023-01-26T08:28:06.601Z,1019.1
2023-01-26T08:29:22.516Z,1019.1
2023-01-26T08:30:38.982Z,1019.1
2023-01-26T08:31:55.170Z,1019.1
2023-01-26T08:33:11.359Z,1019.1
2023-01-26T08:34:27.280Z,1019
2023-01-26T08:35:42.760Z,1019.1
2023-01-26T08:36:58.940Z,1019.1
2023-01-26T08:38:15.124Z,1019
2023-01-26T08:39:31.311Z,1019
2023-01-26T08:40:47.497Z,1019
2023-01-26T08:42:03.703Z,1019
2023-01-26T08:43:19.881Z,1019
2023-01-26T08:44:35.815Z,1019
2023-01-26T08:45:52.266Z,1018.9
2023-01-26T08:47:08.445Z,1019
2023-01-26T08:48:24.632Z,1019
2023-01-26T08:49:40.836Z,1019
2023-01-26T08:50:56.746Z,1019
2023-01-26T08:52:11.955Z,1019
2023-01-26T08:53:28.418Z,1019
2023-01-26T08:54:44.607Z,1019
2023-01-26T08:56:00.801Z,1019
2023-01-26T08:57:16.992Z,1019.1
2023-01-26T08:58:32.906Z,1019
2023-01-26T08:59:49.092Z,1019.1
2023-01-26T09:01:05.543Z,1019.1
2023-01-26T09:02:21.737Z,1019.1
2023-01-26T09:03:37.934Z,1019.1
2023-01-26T09:04:54.123Z,1019.1
2023-01-26T09:06:10.305Z,1019.1
2023-01-26T09:07:26.218Z,1019.1
2023-01-26T09:08:41.697Z,1019.2
2023-01-26T09:09:57.618Z,1019.1
2023-01-26T09:11:14.079Z,1019.2
2023-01-26T09:12:30.268Z,1019.1
2023-01-26T09:13:46.468Z,1019.2
2023-01-26T09:15:02.382Z,1019.1
2023-01-26T09:16:18.842Z,1019.2
2023-01-26T09:17:35.029Z,1019.2
2023-01-26T09:18:51.216Z,1019.2
2023-01-26T09:20:07.407Z,1019.2
2023-01-26T09:21:23.595Z,1019.2
2023-01-26T09:22:39.501Z,1019.1
2023-01-26T09:23:55.674Z,1019.2
2023-01-26T09:25:11.157Z,1019.1
2023-01-26T09:26:27.359Z,1019.2
2023-01-26T09:27:43.536Z,1019.2
2023-01-26T09:28:59.719Z,1019.2
2023-01-26T09:30:15.640Z,1019.3
2023-01-26T09:31:32.098Z,1019.3
2023-01-26T09:32:48.003Z,1019.3
2023-01-26T09:34:04.479Z,1019.3
2023-01-26T09:35:20.655Z,1019.3
2023-01-26T09:36:36.856Z,1019.3
2023-01-26T09:37:52.763Z,1019.2
2023-01-26T09:39:09.228Z,1019.3
2023-01-26T09:40:25.419Z,1019.2
2023-01-26T09:41:40.623Z,1019.2
2023-01-26T09:42:56.815Z,1019.2
2023-01-26T09:44:13.000Z,1019.3
2023-01-26T09:45:29.165Z,1019.2
2023-01-26T09:46:45.349Z,1019.2
2023-01-26T09:48:01.552Z,1019.2
2023-01-26T09:49:17.741Z,1019.2
2023-01-26T09:50:33.925Z,1019.1
2023-01-26T09:51:50.127Z,1019.2
2023-01-26T09:53:06.275Z,1019.2
2023-01-26T09:54:22.497Z,1019.2
2023-01-26T09:55:38.657Z,1019.2
2023-01-26T09:56:54.870Z,1019.2
2023-01-26T09:58:10.061Z,1019.2
2023-01-26T09:59:26.261Z,1019.2
2023-01-26T10:00:42.434Z,1019.2
2023-01-26T10:01:58.644Z,1019.2
2023-01-26T10:03:14.803Z,1019.1
2023-01-26T10:04:31.005Z,1019.1
2023-01-26T10:05:47.186Z,1019.2
2023-01-26T10:07:03.378Z,1019.1
2023-01-26T10:08:19.539Z,1019.1
2023-01-26T10:09:35.733Z,1019.1
2023-01-26T10:10:51.914Z,1019.1
2023-01-26T10:12:08.132Z,1019
2023-01-26T10:13:24.330Z,1019.1
2023-01-26T10:14:39.518Z,1019.1
2023-01-26T10:15:55.705Z,1019.1
2023-01-26T10:17:11.891Z,1019.1
2023-01-26T10:18:28.000Z,1019
2023-01-26T10:19:44.284Z,1019
2023-01-26T10:21:00.465Z,1019
2023-01-26T10:22:16.651Z,1018.9
2023-01-26T10:23:32.807Z,1018.9
2023-01-26T10:24:49.034Z,1018.9
2023-01-26T10:26:05.191Z,1018.9
2023-01-26T10:27:21.374Z,1018.9
2023-01-26T10:28:37.580Z,1019
2023-01-26T10:29:53.767Z,1019
2023-01-26T10:31:08.938Z,1019
2023-01-26T10:32:25.160Z,1019
2023-01-26T10:33:41.358Z,1019
2023-01-26T10:34:57.514Z,1018.9
2023-01-26T10:36:13.726Z,1019
2023-01-26T10:37:29.924Z,1018.8
2023-01-26T10:38:46.064Z,1018.8
2023-01-26T10:40:02.298Z,1018.8
2023-01-26T10:41:18.454Z,1018.8
2023-01-26T10:42:34.663Z,1018.8
2023-01-26T10:43:50.857Z,1018.8
2023-01-26T10:45:07.035Z,1018.8
2023-01-26T10:46:23.219Z,1018.8
2023-01-26T10:47:38.401Z,1018.7
2023-01-26T10:48:54.625Z,1018.7
2023-01-26T10:50:10.772Z,1018.7
2023-01-26T10:51:27.002Z,1018.6
2023-01-26T10:52:43.137Z,1018.7
2023-01-26T10:53:59.365Z,1018.7
2023-01-26T10:55:14.582Z,1018.6
2023-01-26T10:56:30.767Z,1018.6
2023-01-26T10:57:46.941Z,1018.6
2023-01-26T10:59:03.147Z,1018.6
2023-01-26T11:00:19.321Z,1018.5
2023-01-26T11:01:35.469Z,1018.6
2023-01-26T11:02:51.670Z,1018.5
2023-01-26T11:04:07.886Z,1018.5
2023-01-26T11:05:24.043Z,1018.5
2023-01-26T11:06:40.282Z,1018.5
2023-01-26T11:07:56.450Z,1018.5
2023-01-26T11:09:12.610Z,1018.5
2023-01-26T11:10:28.825Z,1018.6
2023-01-26T11:11:44.035Z,1018.6
2023-01-26T11:13:00.177Z,1018.6
2023-01-26T11:14:16.408Z,1018.6
2023-01-26T11:15:32.589Z,1018.6
2023-01-26T11:16:48.733Z,1018.6
2023-01-26T11:18:04.958Z,1018.6
2023-01-26T11:19:21.154Z,1018.5
2023-01-26T11:20:37.339Z,1018.6
2023-01-26T11:21:53.483Z,1018.5
2023-01-26T11:23:09.711Z,1018.5
2023-01-26T11:24:25.857Z,1018.5
2023-01-26T11:25:42.090Z,1018.5
2023-01-26T11:26:58.271Z,1018.5
2023-01-26T11:28:13.489Z,1018.5
2023-01-26T11:29:29.677Z,1018.5
2023-01-26T11:30:45.851Z,1018.5
2023-01-26T11:32:02.005Z,1018.5
2023-01-26T11:33:18.178Z,1018.4
2023-01-26T11:34:34.422Z,1018.4
2023-01-26T11:35:50.615Z,1018.3
2023-01-26T11:37:06.796Z,1018.4
2023-01-26T11:38:22.977Z,1018.3
2023-01-26T11:39:39.127Z,1018.4
2023-01-26T11:40:55.363Z,1018.3
2023-01-26T11:42:11.498Z,1018.3
2023-01-26T11:43:27.689Z,1018.3
2023-01-26T11:44:42.934Z,1018.2
2023-01-26T11:45:59.121Z,1018.3
2023-01-26T11:47:15.273Z,1018.3
2023-01-26T11:48:31.489Z,1018.2
2023-01-26T11:49:47.676Z,1018.3
2023-01-26T11:51:03.874Z,1018.2
2023-01-26T11:52:20.067Z,1018.2
2023-01-26T11:53:36.241Z,1018.2
2023-01-26T11:54:52.396Z,1018.2
2023-01-26T11:56:08.626Z,1018.2
2023-01-26T11:57:24.807Z,1018.1
2023-01-26T11:58:40.990Z,1018.2
2023-01-26T11:59:57.128Z,1018.1
2023-01-26T12:01:12.379Z,1018.1
2023-01-26T12:02:28.529Z,1018.1
2023-01-26T12:03:44.767Z,1018.1
2023-01-26T12:05:00.953Z,1018.1
2023-01-26T12:06:17.141Z,1018
2023-01-26T12:07:33.278Z,1018
2023-01-26T12:08:49.457Z,1018
2023-01-26T12:10:05.656Z,1018
2023-01-26T12:11:21.839Z,1018
2023-01-26T12:12:38.029Z,1017.9
2023-01-26T12:13:54.269Z,1017.9
2023-01-26T12:15:10.441Z,1017.9
2023-01-26T12:16:26.631Z,1017.9
2023-01-26T12:17:41.794Z,1017.9
2023-01-26T12:18:57.981Z,1017.9
2023-01-26T12:20:14.158Z,1017.8
2023-01-26T12:21:30.357Z,1017.7
2023-01-26T12:22:46.582Z,1017.7
2023-01-26T12:24:02.771Z,1017.7
2023-01-26T12:25:18.917Z,1017.7
2023-01-26T12:26:35.155Z,1017.7
2023-01-26T12:27:51.334Z,1017.7
2023-01-26T12:29:07.527Z,1017.6
2023-01-26T12:30:23.714Z,1017.6
2023-01-26T12:31:39.897Z,1017.6
2023-01-26T12:32:56.088Z,1017.6
2023-01-26T12:34:11.292Z,1017.6
2023-01-26T12:35:27.473Z,1017.7
2023-01-26T12:36:43.615Z,1017.7
2023-01-26T12:37:59.851Z,1017.7
2023-01-26T12:39:16.052Z,1017.7
2023-01-26T12:40:32.229Z,1017.6
2023-01-26T12:41:48.415Z,1017.6
2023-01-26T12:43:04.608Z,1017.6
2023-01-26T12:44:20.801Z,1017.6
2023-01-26T12:45:36.976Z,1017.6
2023-01-26T12:46:53.114Z,1017.5
2023-01-26T12:48:09.296Z,1017.6
2023-01-26T12:49:25.532Z,1017.6
2023-01-26T12:50:40.678Z,1017.6
2023-01-26T12:51:56.934Z,1017.6
2023-01-26T12:53:13.052Z,1017.5
2023-01-26T12:54:29.241Z,1017.6
2023-01-26T12:55:45.442Z,1017.5
2023-01-26T12:57:01.689Z,1017.5
2023-01-26T12:58:17.877Z,1017.5
2023-01-26T12:59:34.069Z,1017.6
2023-01-26T13:00:50.248Z,1017.6
2023-01-26T13:02:06.379Z,1017.5
2023-01-26T13:03:22.614Z,1017.6
2023-01-26T13:04:38.817Z,1017.5
2023-01-26T13:05:54.991Z,1017.6
2023-01-26T13:07:10.203Z,1017.6
2023-01-26T13:08:26.317Z,1017.6
2023-01-26T13:09:42.506Z,1017.7
2023-01-26T13:10:58.759Z,1017.6
2023-01-26T13:12:14.893Z,1017.7
2023-01-26T13:13:31.144Z,1017.7
2023-01-26T13:14:47.322Z,1017.7
2023-01-26T13:16:03.443Z,1017.7
2023-01-26T13:17:19.695Z,1017.6
2023-01-26T13:18:35.814Z,1017.7
2023-01-26T13:19:52.082Z,1017.6
2023-01-26T13:21:08.259Z,1017.6
2023-01-26T13:22:24.390Z,1017.7
2023-01-26T13:23:39.644Z,1017.6
2023-01-26T13:24:55.776Z,1017.7
2023-01-26T13:26:11.953Z,1017.7
2023-01-26T13:27:28.217Z,1017.7
2023-01-26T13:28:44.400Z,1017.7
2023-01-26T13:30:00.594Z,1017.7
2023-01-26T13:31:16.783Z,1017.8
2023-01-26T13:32:32.888Z,1017.7
2023-01-26T13:33:49.076Z,1017.7
2023-01-26T13:35:05.269Z,1017.7
2023-01-26T13:36:21.533Z,1017.7
2023-01-26T13:37:37.653Z,1017.7
2023-01-26T13:38:53.894Z,1017.8
2023-01-26T13:40:09.096Z,1017.8
2023-01-26T13:41:25.220Z,1017.7
2023-01-26T13:42:41.488Z,1017.9
2023-01-26T13:43:57.665Z,1017.8
2023-01-26T13:45:13.790Z,1017.9
2023-01-26T13:46:30.047Z,1017.9
2023-01-26T13:47:46.220Z,1017.9
2023-01-26T13:49:02.336Z,1017.9
2023-01-26T13:50:18.536Z,1017.9
2023-01-26T13:51:34.795Z,1017.9
2023-01-26T13:52:50.973Z,1018
2023-01-26T13:54:07.169Z,1017.9
2023-01-26T13:55:23.356Z,1017.8
2023-01-26T13:56:38.491Z,1017.9
2023-01-26T13:57:54.743Z,1018
2023-01-26T13:59:10.925Z,1017.9
2023-01-26T14:00:27.122Z,1017.9
2023-01-26T14:01:43.229Z,1018
2023-01-26T14:02:59.424Z,1018
2023-01-26T14:04:15.607Z,1017.9
2023-01-26T14:05:31.870Z,1018
2023-01-26T14:06:48.056Z,1017.9
2023-01-26T14:08:04.241Z,1017.9
2023-01-26T14:09:20.440Z,1017.9
2023-01-26T14:10:36.547Z,1017.9
2023-01-26T14:11:52.728Z,1017.9
2023-01-26T14:13:07.936Z,1018
2023-01-26T14:14:24.211Z,1017.9
2023-01-26T14:15:40.314Z,1018
2023-01-26T14:16:56.565Z,1017.9
2023-01-26T14:18:12.759Z,1017.8
2023-01-26T14:19:28.868Z,1017.9
2023-01-26T14:20:45.129Z,1017.9
2023-01-26T14:22:01.323Z,1017.8
2023-01-26T14:23:17.512Z,1017.8
2023-01-26T14:24:33.698Z,1017.9
2023-01-26T14:25:49.878Z,1017.9
2023-01-26T14:27:05.981Z,1017.9
2023-01-26T14:28:22.188Z,1017.9
2023-01-26T14:29:37.467Z,1018
2023-01-26T14:30:53.642Z,1018
2023-01-26T14:32:09.835Z,1018
2023-01-26T14:33:26.025Z,1017.9
2023-01-26T14:34:42.221Z,1017.9
2023-01-26T14:35:58.399Z,1017.9
2023-01-26T14:37:14.591Z,1017.9
2023-01-26T14:38:30.780Z,1017.9
2023-01-26T14:39:46.972Z,1017.9
2023-01-26T14:41:03.075Z,1017.9
2023-01-26T14:42:19.340Z,1017.8
2023-01-26T14:43:35.521Z,1017.8
2023-01-26T14:44:51.621Z,1017.8
2023-01-26T14:46:08.019Z,1017.9
2023-01-26T14:47:24.208Z,1017.9
2023-01-26T14:48:40.394Z,1017.9
2023-01-26T14:49:56.502Z,1017.8
2023-01-26T14:51:12.767Z,1018
2023-01-26T14:52:28.950Z,1018
2023-01-26T14:53:45.140Z,1018
2023-01-26T14:55:01.341Z,1018
2023-01-26T14:56:17.521Z,1018
2023-01-26T14:57:33.703Z,1018
2023-01-26T14:58:49.900Z,1018
2023-01-26T15:00:06.074Z,1018
2023-01-26T15:01:22.273Z,1017.9
2023-01-26T15:02:37.484Z,1017.9
2023-01-26T15:03:53.666Z,1018
2023-01-26T15:05:09.754Z,1017.9
2023-01-26T15:06:26.031Z,1018
2023-01-26T15:07:42.218Z,1018
2023-01-26T15:08:58.414Z,1018.1
2023-01-26T15:10:13.618Z,1018
2023-01-26T15:11:29.812Z,1018.1
2023-01-26T15:12:45.912Z,1018
2023-01-26T15:14:02.176Z,1017.9
2023-01-26T15:15:18.369Z,1018
2023-01-26T15:16:34.558Z,1017.9
2023-01-26T15:17:50.750Z,1017.9
2023-01-26T15:19:06.941Z,1018
2023-01-26T15:20:23.022Z,1018
2023-01-26T15:21:39.315Z,1017.9
2023-01-26T15:22:55.491Z,1017.9
2023-01-26T15:24:11.691Z,1018
2023-01-26T15:25:27.778Z,1018
2023-01-26T15:26:43.084Z,1018.1
2023-01-26T15:27:59.172Z,1018
2023-01-26T15:29:15.443Z,1018
2023-01-26T15:30:31.641Z,1018
2023-01-26T15:31:47.827Z,1018
2023-01-26T15:33:04.009Z,1018.1
2023-01-26T15:34:20.201Z,1018.1
2023-01-26T15:35:36.287Z,1018.1
2023-01-26T15:36:52.579Z,1018.1
2023-01-26T15:38:08.674Z,1018
2023-01-26T15:39:24.948Z,1018.1
2023-01-26T15:40:41.134Z,1018.1
2023-01-26T15:41:57.331Z,1018
2023-01-26T15:43:12.435Z,1018.1
2023-01-26T15:44:28.615Z,1018.1
2023-01-26T15:45:44.895Z,1018.1
2023-01-26T15:47:01.082Z,1018.1
2023-01-26T15:48:17.182Z,1018.1
2023-01-26T15:49:33.459Z,1018.1
2023-01-26T15:50:49.563Z,1018.1
2023-01-26T15:52:05.845Z,1018.1
2023-01-26T15:53:22.022Z,1018.1
2023-01-26T15:54:38.114Z,1018.1
2023-01-26T15:55:54.405Z,1018.1
2023-01-26T15:57:10.495Z,1018.1
2023-01-26T15:58:26.777Z,1018.1
2023-01-26T15:59:41.987Z,1018.1